Time;durP1;ratioP1;P1;durP2;ratioP2;P2;SDS_P1;SDS_P2;PMS_P1;PMS_P2;Temp;Humidity;BMP_temperature;BMP_pressure;BME280_temperature;BME280_humidity;BME280_pressure;Samples;Min_cycle;Max_cycle;Signal;HPM_P1;HPM_P2
2023/05/08 00:00:34;;;;;;;;;;;22.40;77.10;;;;;;5087621;27;42779;-80
2023/05/08 00:03:00;;;;;;;;;;;22.20;77.20;;;;;;5086743;28;43059;-76
2023/05/08 00:05:25;;;;;;;;;;;22.30;77.40;;;;;;5086572;28;43826;-77
2023/05/08 00:07:52;;;;;;;;;;;22.40;77.50;;;;;;5086590;28;43570;-79
2023/05/08 00:10:17;;;;;;;;;;;22.30;77.50;;;;;;5086685;27;43074;-79
2023/05/08 00:12:43;;;;;;;;;;;22.50;77.80;;;;;;5084104;28;43090;-79
2023/05/08 00:15:08;;;;;;;;;;;22.30;77.40;;;;;;5086008;28;43026;-79
2023/05/08 00:17:34;;;;;;;;;;;22.30;77.60;;;;;;5087038;27;43365;-79
2023/05/08 00:19:59;;;;;;;;;;;22.30;77.80;;;;;;5086803;28;43542;-79
2023/05/08 00:22:25;;;;;;;;;;;22.40;77.60;;;;;;5086981;28;43153;-79
2023/05/08 00:24:50;;;;;;;;;;;22.40;77.60;;;;;;5086370;28;42965;-79
2023/05/08 00:27:16;;;;;;;;;;;22.20;77.70;;;;;;5087139;28;42897;-77
2023/05/08 00:29:42;;;;;;;;;;;22.30;77.30;;;;;;5083814;28;43409;-79
2023/05/08 00:32:07;;;;;;;;;;;22.50;77.80;;;;;;5086708;27;43438;-79
2023/05/08 00:34:33;;;;;;;;;;;22.30;77.50;;;;;;5085029;28;43754;-78
2023/05/08 00:36:58;;;;;;;;;;;22.40;77.80;;;;;;5086717;27;42932;-80
2023/05/08 00:39:24;;;;;;;;;;;22.30;78.10;;;;;;5086352;27;43467;-78
2023/05/08 00:41:50;;;;;;;;;;;22.30;78.20;;;;;;5086175;28;43026;-78
2023/05/08 00:44:15;;;;;;;;;;;22.30;78.20;;;;;;5083663;28;43723;-79
2023/05/08 00:46:41;;;;;;;;;;;22.40;78.20;;;;;;5087068;27;43000;-79
2023/05/08 00:49:09;;;;;;;;;;;22.40;78.10;;;;;;5086473;27;43261;-78
2023/05/08 00:51:35;;;;;;;;;;;22.30;78.20;;;;;;5075015;28;42994;-78
2023/05/08 00:54:00;;;;;;;;;;;22.50;77.80;;;;;;5084695;28;42955;-79
2023/05/08 00:56:27;;;;;;;;;;;22.30;77.70;;;;;;5086463;27;42900;-79
2023/05/08 00:58:52;;;;;;;;;;;22.40;78.30;;;;;;5085660;27;42913;-79
2023/05/08 01:01:18;;;;;;;;;;;22.50;77.90;;;;;;5085555;27;42851;-79
2023/05/08 01:03:43;;;;;;;;;;;22.50;78.10;;;;;;5086062;28;42885;-77
2023/05/08 01:06:09;;;;;;;;;;;22.30;77.80;;;;;;5085943;27;43018;-78
2023/05/08 01:08:35;;;;;;;;;;;22.40;77.80;;;;;;5086325;28;42959;-78
2023/05/08 01:11:12;;;;;;;;;;;22.40;77.80;;;;;;5086213;28;42970;-77
2023/05/08 01:13:50;;;;;;;;;;;22.50;77.60;;;;;;5086461;27;43096;-77
2023/05/08 01:16:18;;;;;;;;;;;22.40;77.90;;;;;;5086101;28;42937;-78
2023/05/08 01:19:10;;;;;;;;;;;22.50;77.70;;;;;;5086237;27;43336;-78
2023/05/08 01:21:46;;;;;;;;;;;22.30;77.50;;;;;;5079237;28;43451;-80
2023/05/08 01:24:11;;;;;;;;;;;22.40;77.50;;;;;;5072817;28;43008;-78
2023/05/08 01:27:00;;;;;;;;;;;22.50;77.50;;;;;;5081170;28;42841;-78
2023/05/08 01:29:26;;;;;;;;;;;22.50;77.50;;;;;;5053767;27;42964;-77
2023/05/08 01:32:12;;;;;;;;;;;22.40;77.50;;;;;;5084450;27;43082;-77
2023/05/08 01:34:56;;;;;;;;;;;22.40;77.20;;;;;;5085399;27;43328;-78
2023/05/08 01:37:27;;;;;;;;;;;22.40;76.90;;;;;;5084528;27;43257;-79
2023/05/08 01:40:02;;;;;;;;;;;22.30;77.10;;;;;;5085781;27;42881;-78
2023/05/08 01:42:27;;;;;;;;;;;22.40;75.90;;;;;;5085729;28;43015;-79
2023/05/08 01:44:58;;;;;;;;;;;22.50;76.90;;;;;;5084098;28;42926;-78
2023/05/08 01:47:26;;;;;;;;;;;22.40;76.60;;;;;;5085459;27;43292;-80
2023/05/08 01:50:11;;;;;;;;;;;22.50;76.40;;;;;;5084745;28;42986;-79
2023/05/08 01:52:49;;;;;;;;;;;22.50;76.40;;;;;;5084377;28;42863;-79
2023/05/08 01:55:24;;;;;;;;;;;22.40;75.90;;;;;;5084338;27;43046;-79
2023/05/08 01:57:52;;;;;;;;;;;22.70;76.30;;;;;;5084664;27;42915;-79
2023/05/08 02:00:19;;;;;;;;;;;22.40;76.60;;;;;;5082869;27;44013;-79
2023/05/08 02:02:46;;;;;;;;;;;22.40;77.00;;;;;;5074731;27;43324;-79
2023/05/08 02:05:13;;;;;;;;;;;22.40;77.10;;;;;;5071465;28;43055;-78
2023/05/08 02:07:39;;;;;;;;;;;22.40;76.70;;;;;;5082365;28;42985;-78
2023/05/08 02:10:06;;;;;;;;;;;22.50;76.80;;;;;;5084207;27;42988;-78
2023/05/08 02:12:33;;;;;;;;;;;22.50;76.40;;;;;;5083858;27;43242;-78
2023/05/08 02:14:59;;;;;;;;;;;22.40;76.40;;;;;;5081840;28;43643;-79
2023/05/08 02:17:25;;;;;;;;;;;22.30;76.00;;;;;;5084306;27;42921;-79
2023/05/08 02:19:52;;;;;;;;;;;22.40;76.20;;;;;;5084291;27;42925;-78
2023/05/08 02:22:18;;;;;;;;;;;22.40;76.30;;;;;;5084353;27;43175;-78
2023/05/08 02:24:44;;;;;;;;;;;22.40;76.30;;;;;;5084550;27;43552;-78
2023/05/08 02:27:10;;;;;;;;;;;22.40;76.20;;;;;;5084387;27;42846;-79
2023/05/08 02:29:36;;;;;;;;;;;22.50;76.30;;;;;;5083444;27;42903;-79
2023/05/08 02:32:02;;;;;;;;;;;22.40;76.30;;;;;;5084732;27;42938;-78
2023/05/08 02:34:29;;;;;;;;;;;22.50;77.20;;;;;;5084893;27;43800;-76
2023/05/08 02:36:55;;;;;;;;;;;22.30;75.90;;;;;;5074973;27;42900;-79
2023/05/08 02:39:24;;;;;;;;;;;22.20;75.80;;;;;;5078666;28;43619;-80
2023/05/08 02:41:49;;;;;;;;;;;22.30;75.80;;;;;;5084845;27;42866;-78
2023/05/08 02:44:15;;;;;;;;;;;22.40;75.90;;;;;;5081243;28;44036;-79
2023/05/08 02:46:51;;;;;;;;;;;22.30;76.50;;;;;;5084226;27;43117;-78
2023/05/08 02:49:35;;;;;;;;;;;22.40;75.80;;;;;;5083372;27;43622;-80
2023/05/08 02:52:20;;;;;;;;;;;22.30;75.50;;;;;;5084325;27;42763;-79
2023/05/08 02:55:10;;;;;;;;;;;22.30;75.40;;;;;;5083745;28;42942;-79
2023/05/08 02:57:36;;;;;;;;;;;22.40;72.70;;;;;;5083946;28;43057;-77
2023/05/08 03:00:02;;;;;;;;;;;;;;;;;;5083709;27;43427;-78
2023/05/08 03:02:39;;;;;;;;;;;22.30;72.10;;;;;;5071772;27;42850;-79
2023/05/08 03:05:07;;;;;;;;;;;22.30;75.50;;;;;;5069398;28;43454;-78
2023/05/08 03:07:37;;;;;;;;;;;22.40;75.30;;;;;;5082387;28;43143;-78
2023/05/08 03:10:04;;;;;;;;;;;22.50;74.80;;;;;;5083531;28;43872;-76
2023/05/08 03:12:32;;;;;;;;;;;22.40;75.10;;;;;;5082987;27;43598;-76
2023/05/08 03:15:10;;;;;;;;;;;22.20;75.10;;;;;;5084493;27;43954;-79
2023/05/08 03:17:36;;;;;;;;;;;22.40;74.40;;;;;;5084079;28;42893;-76
2023/05/08 03:20:06;;;;;;;;;;;22.40;74.70;;;;;;5086228;27;42983;-77
2023/05/08 03:22:33;;;;;;;;;;;22.40;75.00;;;;;;5087231;27;42996;-76
2023/05/08 03:25:00;;;;;;;;;;;22.30;75.30;;;;;;5087373;27;42976;-78
2023/05/08 03:27:27;;;;;;;;;;;22.40;74.30;;;;;;5087571;27;43149;-78
2023/05/08 03:29:54;;;;;;;;;;;22.40;74.90;;;;;;5086415;27;43062;-77
2023/05/08 03:32:20;;;;;;;;;;;22.40;75.10;;;;;;5087110;27;42864;-79
2023/05/08 03:34:46;;;;;;;;;;;22.40;75.00;;;;;;5087567;27;42964;-76
2023/05/08 03:37:12;;;;;;;;;;;22.40;75.00;;;;;;5075990;27;43032;-76
2023/05/08 03:39:38;;;;;;;;;;;22.40;75.10;;;;;;5081843;28;44070;-79
2023/05/08 03:42:04;;;;;;;;;;;;;;;;;;5086501;27;43361;-75
2023/05/08 03:44:30;;;;;;;;;;;22.60;73.90;;;;;;5086243;28;43405;-76
2023/05/08 03:46:57;;;;;;;;;;;22.40;75.60;;;;;;5086978;27;42969;-79
2023/05/08 03:49:24;;;;;;;;;;;22.50;75.60;;;;;;5086696;28;42836;-77
2023/05/08 03:51:50;;;;;;;;;;;22.50;75.90;;;;;;5087313;27;43015;-77
2023/05/08 03:54:15;;;;;;;;;;;22.40;75.60;;;;;;5087156;27;43513;-79
2023/05/08 03:56:41;;;;;;;;;;;22.30;75.60;;;;;;5086881;28;42829;-79
2023/05/08 03:59:14;;;;;;;;;;;22.50;76.00;;;;;;5085940;28;42913;-79
2023/05/08 04:01:43;;;;;;;;;;;22.30;76.00;;;;;;5084891;27;42952;-80
2023/05/08 04:04:16;;;;;;;;;;;22.40;76.20;;;;;;5073714;28;43059;-77
2023/05/08 04:07:00;;;;;;;;;;;22.50;76.30;;;;;;5085007;27;42996;-77
2023/05/08 04:09:30;;;;;;;;;;;22.40;76.00;;;;;;5085876;28;42804;-78
2023/05/08 04:12:12;;;;;;;;;;;22.40;75.90;;;;;;5086888;27;43042;-78
2023/05/08 04:14:42;;;;;;;;;;;22.40;76.00;;;;;;5074886;27;43702;-78
2023/05/08 04:17:09;;;;;;;;;;;22.50;75.90;;;;;;5086581;27;42772;-78
2023/05/08 04:19:37;;;;;;;;;;;22.30;75.70;;;;;;5078785;27;43039;-77
2023/05/08 04:22:04;;;;;;;;;;;22.40;76.70;;;;;;5082955;27;42918;-78
2023/05/08 04:24:32;;;;;;;;;;;22.50;76.70;;;;;;5085057;27;42981;-78
2023/05/08 04:26:58;;;;;;;;;;;22.60;75.70;;;;;;5076484;27;43176;-77
2023/05/08 04:29:24;;;;;;;;;;;22.40;75.50;;;;;;5080125;27;43272;-83
2023/05/08 04:31:50;;;;;;;;;;;22.40;75.50;;;;;;5085833;27;43038;-77
2023/05/08 04:34:16;;;;;;;;;;;22.40;75.80;;;;;;5081438;27;43260;-79
2023/05/08 04:36:42;;;;;;;;;;;22.30;76.20;;;;;;5077954;27;43033;-76
2023/05/08 04:39:07;;;;;;;;;;;22.50;75.70;;;;;;5069717;27;44569;-79
2023/05/08 04:41:34;;;;;;;;;;;22.60;75.80;;;;;;5083325;27;42997;-81
2023/05/08 04:44:00;;;;;;;;;;;22.50;75.70;;;;;;5071880;27;44443;-81
2023/05/08 04:46:25;;;;;;;;;;;22.50;74.40;;;;;;5084684;27;43017;-82
2023/05/08 04:48:51;;;;;;;;;;;22.40;74.20;;;;;;5084819;27;43517;-81
2023/05/08 04:51:17;;;;;;;;;;;22.10;74.50;;;;;;5082841;27;42889;-79
2023/05/08 04:53:42;;;;;;;;;;;22.30;75.10;;;;;;5071532;27;44329;-79
2023/05/08 04:56:08;;;;;;;;;;;22.20;74.00;;;;;;5083173;27;42883;-82
2023/05/08 04:58:33;;;;;;;;;;;22.30;74.30;;;;;;5078462;27;43755;-79
2023/05/08 05:01:02;;;;;;;;;;;22.40;73.80;;;;;;5074241;27;42959;-82
2023/05/08 05:03:28;;;;;;;;;;;22.30;74.10;;;;;;5068703;27;43778;-79
2023/05/08 05:06:00;;;;;;;;;;;22.50;74.80;;;;;;5077155;28;42944;-80
2023/05/08 05:08:25;;;;;;;;;;;22.30;71.40;;;;;;5084127;27;42835;-79
2023/05/08 05:10:51;;;;;;;;;;;22.30;74.50;;;;;;5085405;28;43089;-81
2023/05/08 05:13:17;;;;;;;;;;;22.30;74.30;;;;;;5084209;27;43443;-78
2023/05/08 05:15:42;;;;;;;;;;;22.30;74.20;;;;;;5085576;27;43425;-82
2023/05/08 05:18:08;;;;;;;;;;;22.20;73.50;;;;;;5084689;28;43919;-79
2023/05/08 05:20:33;;;;;;;;;;;22.00;73.40;;;;;;5084756;28;43009;-82
2023/05/08 05:22:59;;;;;;;;;;;22.10;72.30;;;;;;5084676;27;43499;-78
2023/05/08 05:25:24;;;;;;;;;;;22.20;71.60;;;;;;5085376;28;43037;-81
2023/05/08 05:27:50;;;;;;;;;;;22.30;71.70;;;;;;5084631;28;43001;-81
2023/05/08 05:30:15;;;;;;;;;;;22.30;71.60;;;;;;5084587;28;42990;-82
2023/05/08 05:32:41;;;;;;;;;;;22.20;70.90;;;;;;5085673;28;43087;-79
2023/05/08 05:35:07;;;;;;;;;;;22.30;70.70;;;;;;5080911;28;42953;-81
2023/05/08 05:37:33;;;;;;;;;;;22.20;70.10;;;;;;5090248;27;45218;-80
2023/05/08 05:39:58;;;;;;;;;;;22.50;70.90;;;;;;5085747;27;42794;-78
2023/05/08 05:42:24;;;;;;;;;;;22.30;70.40;;;;;;5085090;28;43515;-81
2023/05/08 05:44:50;;;;;;;;;;;22.30;70.40;;;;;;5085410;28;42846;-78
2023/05/08 05:47:15;;;;;;;;;;;22.20;70.50;;;;;;5085073;28;42865;-82
2023/05/08 05:49:45;;;;;;;;;;;22.20;70.20;;;;;;5085711;27;42960;-78
2023/05/08 05:52:11;;;;;;;;;;;22.10;70.40;;;;;;5085373;27;43454;-80
2023/05/08 05:54:36;;;;;;;;;;;22.20;70.50;;;;;;5085027;27;42837;-81
2023/05/08 05:57:02;;;;;;;;;;;22.00;70.30;;;;;;5083425;27;43604;-80
2023/05/08 05:59:28;;;;;;;;;;;22.30;70.50;;;;;;5085145;27;43003;-80
2023/05/08 06:01:53;;;;;;;;;;;22.20;70.30;;;;;;5083114;28;43153;-77
2023/05/08 06:04:19;;;;;;;;;;;22.30;70.10;;;;;;5083005;28;43163;-76
2023/05/08 06:06:44;;;;;;;;;;;22.30;70.10;;;;;;5085043;27;43621;-80
2023/05/08 06:09:10;;;;;;;;;;;22.20;70.00;;;;;;5084488;28;42996;-78
2023/05/08 06:11:35;;;;;;;;;;;21.00;69.30;;;;;;5083237;28;43806;-79
2023/05/08 06:14:01;;;;;;;;;;;22.10;70.20;;;;;;5085204;28;42948;-79
2023/05/08 06:16:27;;;;;;;;;;;22.00;70.90;;;;;;5085271;27;43574;-76
2023/05/08 06:18:52;;;;;;;;;;;22.30;70.80;;;;;;5081918;28;43015;-78
2023/05/08 06:21:18;;;;;;;;;;;22.30;70.70;;;;;;5083059;28;43584;-76
2023/05/08 06:23:43;;;;;;;;;;;22.30;70.80;;;;;;5080182;28;43427;-76
2023/05/08 06:26:09;;;;;;;;;;;22.20;70.70;;;;;;5082848;27;43476;-75
2023/05/08 06:28:34;;;;;;;;;;;22.20;72.10;;;;;;5083782;28;43007;-76
2023/05/08 06:31:00;;;;;;;;;;;22.20;72.30;;;;;;5083656;28;42934;-83
2023/05/08 06:33:25;;;;;;;;;;;22.30;72.40;;;;;;5081071;28;42855;-83
2023/05/08 06:35:51;;;;;;;;;;;22.40;72.10;;;;;;5082973;28;43025;-78
2023/05/08 06:38:17;;;;;;;;;;;22.30;71.70;;;;;;5084647;28;43186;-79
2023/05/08 06:40:43;;;;;;;;;;;22.20;71.30;;;;;;5084108;27;43475;-80
2023/05/08 06:43:09;;;;;;;;;;;22.10;70.90;;;;;;5084569;27;42917;-75
2023/05/08 06:45:35;;;;;;;;;;;22.30;71.00;;;;;;5082719;28;42916;-78
2023/05/08 06:48:00;;;;;;;;;;;22.20;71.00;;;;;;5084470;28;42958;-78
2023/05/08 06:50:26;;;;;;;;;;;22.30;71.00;;;;;;5083948;27;42999;-76
2023/05/08 06:52:51;;;;;;;;;;;22.30;71.20;;;;;;5084348;28;42957;-75
2023/05/08 06:55:17;;;;;;;;;;;22.30;71.10;;;;;;5083538;28;43624;-77
2023/05/08 06:57:42;;;;;;;;;;;22.10;71.20;;;;;;5083822;28;42918;-77
2023/05/08 07:00:08;;;;;;;;;;;22.00;71.60;;;;;;5083812;27;43514;-80
2023/05/08 07:02:34;;;;;;;;;;;22.30;71.90;;;;;;5083775;28;42963;-76
2023/05/08 07:04:59;;;;;;;;;;;22.20;71.80;;;;;;5083529;28;43050;-75
2023/05/08 07:07:25;;;;;;;;;;;22.20;71.40;;;;;;5084016;27;42984;-75
2023/05/08 07:09:50;;;;;;;;;;;22.20;71.80;;;;;;5083800;28;43300;-76
2023/05/08 07:12:16;;;;;;;;;;;22.20;71.80;;;;;;5084377;28;42874;-76
2023/05/08 07:14:42;;;;;;;;;;;22.30;72.50;;;;;;5082962;28;43097;-77
2023/05/08 07:17:08;;;;;;;;;;;22.30;72.60;;;;;;5083855;27;43019;-79
2023/05/08 07:19:35;;;;;;;;;;;22.10;73.00;;;;;;5081737;28;44268;-79
2023/05/08 07:22:00;;;;;;;;;;;22.10;73.70;;;;;;5083761;27;43019;-78
2023/05/08 07:24:26;;;;;;;;;;;;;;;;;;5082341;28;43022;-79
2023/05/08 07:26:52;;;;;;;;;;;22.20;73.90;;;;;;5082935;28;42942;-78
2023/05/08 07:29:19;;;;;;;;;;;22.20;73.90;;;;;;5083410;27;44490;-77
2023/05/08 07:31:45;;;;;;;;;;;22.20;74.10;;;;;;5083109;27;43209;-79
2023/05/08 07:34:11;;;;;;;;;;;22.20;74.40;;;;;;5081990;28;44058;-77
2023/05/08 07:36:37;;;;;;;;;;;22.40;74.90;;;;;;5078487;28;43005;-77
2023/05/08 07:39:03;;;;;;;;;;;22.20;74.80;;;;;;5072629;28;43710;-78
2023/05/08 07:41:28;;;;;;;;;;;22.00;75.90;;;;;;5080656;28;42919;-78
2023/05/08 07:43:54;;;;;;;;;;;22.10;75.90;;;;;;5071809;28;43004;-78
2023/05/08 07:46:20;;;;;;;;;;;22.20;75.20;;;;;;5081375;28;43086;-79
2023/05/08 07:48:46;;;;;;;;;;;22.30;75.90;;;;;;5069252;28;44858;-77
2023/05/08 07:51:12;;;;;;;;;;;21.60;75.50;;;;;;5083013;27;43182;-82
2023/05/08 07:53:37;;;;;;;;;;;22.20;75.80;;;;;;5082453;28;42934;-79
2023/05/08 07:56:03;;;;;;;;;;;22.20;76.20;;;;;;5083391;28;43068;-82
2023/05/08 07:58:28;;;;;;;;;;;22.20;76.30;;;;;;5083046;28;43859;-81
2023/05/08 08:00:54;;;;;;;;;;;22.20;76.70;;;;;;5084125;27;43903;-79
2023/05/08 08:03:19;;;;;;;;;;;22.20;76.40;;;;;;5086698;27;43870;-78
2023/05/08 08:05:45;;;;;;;;;;;25.30;78.30;;;;;;5086072;28;43254;-80
2023/05/08 08:08:10;;;;;;;;;;;22.20;76.50;;;;;;5085803;27;42994;-79
2023/05/08 08:10:36;;;;;;;;;;;22.20;76.50;;;;;;5086795;28;43244;-78
2023/05/08 08:13:01;;;;;;;;;;;22.20;76.90;;;;;;5086397;28;42992;-76
2023/05/08 08:15:27;;;;;;;;;;;22.10;77.10;;;;;;5085426;27;42858;-79
2023/05/08 08:17:53;;;;;;;;;;;22.10;76.90;;;;;;5073462;28;43922;-74
2023/05/08 08:20:19;;;;;;;;;;;22.30;77.10;;;;;;5086416;27;42996;-88
2023/05/08 08:22:45;;;;;;;;;;;22.20;75.90;;;;;;5089759;27;42902;-79
2023/05/08 08:25:11;;;;;;;;;;;22.30;76.30;;;;;;5086234;28;42944;-78
2023/05/08 08:27:36;;;;;;;;;;;22.30;76.30;;;;;;5097295;27;42966;-78
2023/05/08 08:30:03;;;;;;;;;;;;;;;;;;5085706;28;43164;-81
2023/05/08 08:32:28;;;;;;;;;;;22.30;75.90;;;;;;5086060;28;42959;-87
2023/05/08 08:34:54;;;;;;;;;;;22.40;76.00;;;;;;5086520;28;43071;-84
2023/05/08 08:37:19;;;;;;;;;;;22.40;76.30;;;;;;5084133;28;43662;-83
2023/05/08 08:39:47;;;;;;;;;;;22.30;76.10;;;;;;5085840;28;42921;-79
2023/05/08 08:42:12;;;;;;;;;;;22.30;76.10;;;;;;5082320;27;43343;-80
2023/05/08 08:44:38;;;;;;;;;;;22.20;76.20;;;;;;5092412;27;43194;-80
2023/05/08 08:47:04;;;;;;;;;;;22.30;75.90;;;;;;5086999;27;42982;-80
2023/05/08 08:49:30;;;;;;;;;;;22.30;76.30;;;;;;5085694;27;43103;-83
2023/05/08 08:52:06;;;;;;;;;;;22.40;74.90;;;;;;5086174;27;43042;-80
2023/05/08 08:54:33;;;;;;;;;;;22.30;74.50;;;;;;5085880;27;42937;-84
2023/05/08 08:57:06;;;;;;;;;;;22.30;74.50;;;;;;5086268;27;44048;-79
2023/05/08 08:59:32;;;;;;;;;;;22.30;74.60;;;;;;5086106;28;43352;-80
2023/05/08 09:02:00;;;;;;;;;;;22.30;74.70;;;;;;5085224;28;43259;-81
2023/05/08 09:04:26;;;;;;;;;;;22.30;74.60;;;;;;5085085;28;43119;-86
2023/05/08 09:06:52;;;;;;;;;;;22.30;74.40;;;;;;5085211;27;43336;-80
2023/05/08 09:09:17;;;;;;;;;;;22.30;73.90;;;;;;5084689;27;42955;-77
2023/05/08 09:11:44;;;;;;;;;;;22.30;73.70;;;;;;5073970;27;43593;-78
2023/05/08 09:14:10;;;;;;;;;;;22.30;74.00;;;;;;5082926;27;42933;-78
2023/05/08 09:16:35;;;;;;;;;;;22.50;73.70;;;;;;5085512;28;43007;-77
2023/05/08 09:19:02;;;;;;;;;;;22.40;73.60;;;;;;5083917;28;43775;-81
2023/05/08 09:21:27;;;;;;;;;;;22.10;73.40;;;;;;5085124;27;43446;-78
2023/05/08 09:23:57;;;;;;;;;;;22.50;73.50;;;;;;5085282;27;43146;-80
2023/05/08 09:26:27;;;;;;;;;;;22.40;73.20;;;;;;5088233;27;43587;-82
2023/05/08 09:29:07;;;;;;;;;;;22.40;73.10;;;;;;5079391;28;43883;-83
2023/05/08 09:31:40;;;;;;;;;;;22.40;73.00;;;;;;5088778;27;43088;-82
2023/05/08 09:34:06;;;;;;;;;;;22.40;73.10;;;;;;5083406;28;43000;-84
2023/05/08 09:36:33;;;;;;;;;;;22.30;73.20;;;;;;5083549;27;43418;-85
2023/05/08 09:38:59;;;;;;;;;;;22.10;73.10;;;;;;5083570;27;43106;-81
2023/05/08 09:41:25;;;;;;;;;;;22.30;73.30;;;;;;5084272;27;42983;-81
2023/05/08 09:44:01;;;;;;;;;;;22.30;73.50;;;;;;5084542;27;43084;-81
2023/05/08 09:46:27;;;;;;;;;;;22.30;73.80;;;;;;5075106;27;42946;-81
2023/05/08 09:48:53;;;;;;;;;;;22.20;73.60;;;;;;5080925;28;43138;-81
2023/05/08 09:51:19;;;;;;;;;;;22.30;73.50;;;;;;5084706;27;43079;-81
2023/05/08 09:53:45;;;;;;;;;;;22.30;73.20;;;;;;5084775;27;42850;-78
2023/05/08 09:56:10;;;;;;;;;;;22.30;73.20;;;;;;5079954;28;43513;-78
2023/05/08 09:58:40;;;;;;;;;;;22.40;73.40;;;;;;5083748;28;42976;-79
2023/05/08 10:01:06;;;;;;;;;;;22.20;70.90;;;;;;5083050;27;42989;-79
2023/05/08 10:03:50;;;;;;;;;;;22.40;73.30;;;;;;5073173;28;43174;-79
2023/05/08 10:06:15;;;;;;;;;;;22.30;70.60;;;;;;5082733;27;44926;-79
2023/05/08 10:08:41;;;;;;;;;;;22.30;73.50;;;;;;5084744;28;43065;-79
2023/05/08 10:11:14;;;;;;;;;;;22.30;73.40;;;;;;5084691;27;43000;-79
2023/05/08 10:13:40;;;;;;;;;;;22.30;73.30;;;;;;5072526;27;42889;-79
2023/05/08 10:16:06;;;;;;;;;;;22.30;73.20;;;;;;5084761;28;43446;-79
2023/05/08 10:18:34;;;;;;;;;;;22.40;73.30;;;;;;5071263;28;43092;-78
2023/05/08 10:21:03;;;;;;;;;;;21.80;72.90;;;;;;5083380;27;42980;-79
2023/05/08 10:23:29;;;;;;;;;;;22.40;73.50;;;;;;5082323;27;43027;-79
2023/05/08 10:25:57;;;;;;;;;;;22.00;73.50;;;;;;5074050;27;43032;-79
2023/05/08 10:28:31;;;;;;;;;;;22.30;73.60;;;;;;5083051;28;43166;-79
2023/05/08 10:30:59;;;;;;;;;;;22.20;73.30;;;;;;5081846;27;42982;-79
2023/05/08 10:33:26;;;;;;;;;;;22.40;73.10;;;;;;5079876;27;42940;-79
2023/05/08 10:35:52;;;;;;;;;;;22.30;72.90;;;;;;5082501;27;44823;-79
2023/05/08 10:38:18;;;;;;;;;;;22.20;73.50;;;;;;5078410;27;43040;-79
2023/05/08 10:40:43;;;;;;;;;;;22.10;73.00;;;;;;5081160;27;43645;-79
2023/05/08 10:43:10;;;;;;;;;;;22.40;73.10;;;;;;5083120;28;43145;-79
2023/05/08 10:45:36;;;;;;;;;;;22.40;73.20;;;;;;5083792;28;43129;-77
2023/05/08 10:48:15;;;;;;;;;;;22.30;73.10;;;;;;5083280;27;42931;-79
2023/05/08 10:50:46;;;;;;;;;;;22.40;73.20;;;;;;5082856;28;43008;-79
2023/05/08 10:53:17;;;;;;;;;;;22.30;73.30;;;;;;5072847;28;43068;-79
2023/05/08 10:55:45;;;;;;;;;;;22.10;70.90;;;;;;5083127;27;43154;-81
2023/05/08 10:58:11;;;;;;;;;;;22.40;73.30;;;;;;5078443;28;43236;-79
2023/05/08 11:01:02;;;;;;;;;;;22.50;73.00;;;;;;5064684;28;43206;-80
2023/05/08 11:03:28;;;;;;;;;;;22.30;71.80;;;;;;5072286;27;43919;-79
2023/05/08 11:05:55;;;;;;;;;;;22.40;72.80;;;;;;5086254;27;43557;-80
2023/05/08 11:08:26;;;;;;;;;;;22.40;72.50;;;;;;5085080;27;42927;-82
2023/05/08 11:10:57;;;;;;;;;;;22.30;72.50;;;;;;5082936;27;43775;-85
2023/05/08 11:13:28;;;;;;;;;;;22.30;72.70;;;;;;5075872;28;43014;-80
2023/05/08 11:15:54;;;;;;;;;;;22.40;72.90;;;;;;5083069;28;42967;-82
2023/05/08 11:18:20;;;;;;;;;;;22.30;73.30;;;;;;5082467;28;42995;-81
2023/05/08 11:20:55;;;;;;;;;;;22.40;73.30;;;;;;5081247;28;43450;-80
2023/05/08 11:23:27;;;;;;;;;;;22.50;73.60;;;;;;5083425;28;42942;-81
2023/05/08 11:26:06;;;;;;;;;;;22.50;73.90;;;;;;5083442;27;43039;-79
2023/05/08 11:28:35;;;;;;;;;;;22.30;71.10;;;;;;5083811;27;42826;-82
2023/05/08 11:31:02;;;;;;;;;;;22.50;74.00;;;;;;5073433;27;43717;-79
2023/05/08 11:33:36;;;;;;;;;;;22.50;74.50;;;;;;5075791;28;42973;-78
2023/05/08 11:36:12;;;;;;;;;;;22.30;74.40;;;;;;5070180;28;42946;-79
2023/05/08 11:38:37;;;;;;;;;;;22.30;74.20;;;;;;5086739;27;43125;-78
2023/05/08 11:41:07;;;;;;;;;;;22.40;74.30;;;;;;5087071;27;44059;-80
2023/05/08 11:43:32;;;;;;;;;;;22.40;71.60;;;;;;5086536;28;42928;-78
2023/05/08 11:46:05;;;;;;;;;;;22.30;74.10;;;;;;5087140;28;43694;-80
2023/05/08 11:48:31;;;;;;;;;;;22.40;74.20;;;;;;5086773;27;42981;-80
2023/05/08 11:50:57;;;;;;;;;;;22.20;74.50;;;;;;5087117;27;43376;-81
2023/05/08 11:53:23;;;;;;;;;;;22.40;74.40;;;;;;5084863;27;43097;-82
2023/05/08 11:55:50;;;;;;;;;;;22.30;74.30;;;;;;5077419;27;43050;-82
2023/05/08 11:58:16;;;;;;;;;;;22.30;74.00;;;;;;5087196;27;43166;-77
2023/05/08 12:00:43;;;;;;;;;;;22.40;74.00;;;;;;5087220;28;42976;-80
2023/05/08 12:03:16;;;;;;;;;;;22.40;74.30;;;;;;5086825;27;42791;-77
2023/05/08 12:05:42;;;;;;;;;;;22.40;71.70;;;;;;5085798;27;42964;-81
2023/05/08 12:08:09;;;;;;;;;;;22.50;74.60;;;;;;5087142;28;42944;-80
2023/05/08 12:10:56;;;;;;;;;;;22.40;74.50;;;;;;5084591;27;43438;-79
2023/05/08 12:13:23;;;;;;;;;;;22.40;71.70;;;;;;5084556;28;42981;-79
2023/05/08 12:15:52;;;;;;;;;;;22.40;74.60;;;;;;5084782;28;44272;-76
2023/05/08 12:18:17;;;;;;;;;;;22.30;74.50;;;;;;5079713;27;43040;-77
2023/05/08 12:20:43;;;;;;;;;;;22.50;74.80;;;;;;5085224;28;42980;-79
2023/05/08 12:23:09;;;;;;;;;;;22.40;74.70;;;;;;5086467;28;43008;-78
2023/05/08 12:25:38;;;;;;;;;;;22.50;74.80;;;;;;5081473;27;43339;-77
2023/05/08 12:28:05;;;;;;;;;;;22.40;72.00;;;;;;5079375;28;42961;-78
2023/05/08 12:30:30;;;;;;;;;;;22.40;74.80;;;;;;5078401;27;44073;-78
2023/05/08 12:32:56;;;;;;;;;;;22.40;74.90;;;;;;5083214;27;43066;-80
2023/05/08 12:35:22;;;;;;;;;;;22.50;75.10;;;;;;5070709;27;43006;-76
2023/05/08 12:37:49;;;;;;;;;;;22.50;75.00;;;;;;5086197;27;42799;-79
2023/05/08 12:40:27;;;;;;;;;;;22.60;74.90;;;;;;5086068;27;43026;-82
2023/05/08 12:42:53;;;;;;;;;;;22.30;74.50;;;;;;5084383;28;43092;-82
2023/05/08 12:45:26;;;;;;;;;;;22.40;74.40;;;;;;5086405;28;42953;-82
2023/05/08 12:47:53;;;;;;;;;;;22.50;74.60;;;;;;5084496;27;43010;-82
2023/05/08 12:50:21;;;;;;;;;;;22.40;74.30;;;;;;5080875;27;44268;-82
2023/05/08 12:52:47;;;;;;;;;;;22.30;74.20;;;;;;5077241;28;43156;-83
2023/05/08 12:55:19;;;;;;;;;;;22.30;74.30;;;;;;5077646;27;42795;-79
2023/05/08 12:57:45;;;;;;;;;;;22.30;74.50;;;;;;5086064;27;43251;-82
2023/05/08 13:00:11;;;;;;;;;;;22.50;74.80;;;;;;5074965;28;42884;-82
2023/05/08 13:02:36;;;;;;;;;;;22.50;75.00;;;;;;5086397;27;42971;-82
2023/05/08 13:05:03;;;;;;;;;;;22.50;75.10;;;;;;5084354;28;45275;-83
2023/05/08 13:07:32;;;;;;;;;;;22.40;74.80;;;;;;5086154;27;42836;-82
2023/05/08 13:10:01;;;;;;;;;;;22.50;75.00;;;;;;5085884;27;42897;-81
2023/05/08 13:12:26;;;;;;;;;;;22.40;74.70;;;;;;5085542;27;43001;-81
2023/05/08 13:14:52;;;;;;;;;;;;;;;;;;5085804;27;43931;-82
2023/05/08 13:17:18;;;;;;;;;;;22.40;73.70;;;;;;5085892;28;43024;-82
2023/05/08 13:19:43;;;;;;;;;;;22.50;73.70;;;;;;5086327;28;42852;-81
2023/05/08 13:22:09;;;;;;;;;;;22.40;73.70;;;;;;5085953;28;42829;-81
2023/05/08 13:24:34;;;;;;;;;;;22.30;73.40;;;;;;5067347;28;43566;-82
2023/05/08 13:27:00;;;;;;;;;;;22.30;73.60;;;;;;5078749;28;42980;-81
2023/05/08 13:29:26;;;;;;;;;;;22.40;73.60;;;;;;5083362;28;45565;-81
2023/05/08 13:32:09;;;;;;;;;;;22.20;73.30;;;;;;5085215;27;43130;-82
2023/05/08 13:34:35;;;;;;;;;;;22.40;73.70;;;;;;5071707;27;43534;-82
2023/05/08 13:37:00;;;;;;;;;;;22.30;73.90;;;;;;5070515;28;42926;-81
2023/05/08 13:39:31;;;;;;;;;;;22.40;73.40;;;;;;5083710;28;43002;-81
2023/05/08 13:41:59;;;;;;;;;;;22.30;73.20;;;;;;5084980;27;43025;-81
2023/05/08 13:44:25;;;;;;;;;;;22.30;72.90;;;;;;5084634;27;42969;-82
2023/05/08 13:46:50;;;;;;;;;;;22.50;73.00;;;;;;5085897;28;42903;-82
2023/05/08 13:49:18;;;;;;;;;;;22.50;73.30;;;;;;5080883;28;43763;-81
2023/05/08 13:51:43;;;;;;;;;;;22.40;73.20;;;;;;5070778;28;43053;-82
2023/05/08 13:54:09;;;;;;;;;;;22.30;73.10;;;;;;5085010;28;43590;-82
2023/05/08 13:56:34;;;;;;;;;;;22.40;73.10;;;;;;5085644;28;43068;-81
2023/05/08 13:59:00;;;;;;;;;;;22.30;73.20;;;;;;5083987;27;42995;-82
2023/05/08 14:01:26;;;;;;;;;;;22.50;73.60;;;;;;5083015;28;43238;-81
2023/05/08 14:03:52;;;;;;;;;;;22.50;73.80;;;;;;5082778;28;45007;-81
2023/05/08 14:06:19;;;;;;;;;;;22.40;73.80;;;;;;5085445;27;42929;-81
2023/05/08 14:08:46;;;;;;;;;;;22.40;73.90;;;;;;5084818;28;43347;-81
2023/05/08 14:11:11;;;;;;;;;;;22.40;73.70;;;;;;5084540;27;42922;-82
2023/05/08 14:13:37;;;;;;;;;;;22.40;73.00;;;;;;5073245;28;43044;-82
2023/05/08 14:16:03;;;;;;;;;;;22.50;72.50;;;;;;5083189;28;43050;-81
2023/05/08 14:18:28;;;;;;;;;;;22.40;72.70;;;;;;5081774;27;44194;-81
2023/05/08 14:20:53;;;;;;;;;;;22.30;72.70;;;;;;5084382;28;43727;-82